Decoded Metar for KTQE (TEKAMAH in NE, USA) (IATA:TQE) | Meteo·Mobile Aviation Weather
aviador You're here:

KTQE Decoded Metar

TEKAMAH in NE, USA
Report Time2018-09-21 09:54:00
UTC Time2018-09-21 10:19:51
Flight Rules vfr VFR
Wind280° at 04 kt
W.Decomp.*RWY 33: 2.2 kt HW 3.4 kt LCW
W.Rank280° ranks 21
Current wind is below 280° avg. (8.6)
Visibility9999 m
Phenomena:N/A
Clouds:N/A
Expected CloudBase > 800 ft AGL from Temp-Dew spread
CeilingNone
Temp14°C (ISA +1)
Dew Point12°C (88% RH)
AAT13.2°C
QNH1017 hPa
Density Alt1,204 ft
Elevation1,024 ft
Report Wrong Elevation
Raw Report
KTQE 210954Z AUTO 28004KT 10SM CLR 14/12 A3003 RMK AO2 SLP158
T01390122=

Extra information for KTQE:More info

Metar Taf Metar & Taf Last 4 Metars F.Rules Stats Wind Profile Meteogram Temp Stats Airport Information Weather charts Add Link Nearby VenuesMetar ALERT Operation Metar Decoded Social comments

AIRNAV info for KTQE